sensor_id;sensor_type;location;lat;lon;timestamp;temperature;humidity
25963;DHT22;13760;52.588;13.406;2023-12-22T00:00:27;4.80;99.90
25963;DHT22;13760;52.588;13.406;2023-12-22T00:02:52;4.80;99.90
25963;DHT22;13760;52.588;13.406;2023-12-22T00:05:18;4.80;99.90
25963;DHT22;13760;52.588;13.406;2023-12-22T00:07:43;4.70;99.90
25963;DHT22;13760;52.588;13.406;2023-12-22T00:10:09;4.70;99.90
25963;DHT22;13760;52.588;13.406;2023-12-22T00:12:34;4.70;99.90
25963;DHT22;13760;52.588;13.406;2023-12-22T00:15:00;4.70;99.90
25963;DHT22;13760;52.588;13.406;2023-12-22T00:17:26;4.60;99.90
25963;DHT22;13760;52.588;13.406;2023-12-22T00:19:51;4.60;99.90
25963;DHT22;13760;52.588;13.406;2023-12-22T00:22:17;4.60;99.90
25963;DHT22;13760;52.588;13.406;2023-12-22T00:24:42;4.60;99.90
25963;DHT22;13760;52.588;13.406;2023-12-22T00:27:08;4.60;99.90
25963;DHT22;13760;52.588;13.406;2023-12-22T00:29:33;4.60;99.90
25963;DHT22;13760;52.588;13.406;2023-12-22T00:32:01;4.50;99.90
25963;DHT22;13760;52.588;13.406;2023-12-22T00:34:27;4.50;99.90
25963;DHT22;13760;52.588;13.406;2023-12-22T00:36:52;4.50;99.90
25963;DHT22;13760;52.588;13.406;2023-12-22T00:39:18;4.60;99.90
25963;DHT22;13760;52.588;13.406;2023-12-22T00:41:43;4.60;99.90
25963;DHT22;13760;52.588;13.406;2023-12-22T00:44:09;4.60;99.90
25963;DHT22;13760;52.588;13.406;2023-12-22T00:46:34;4.60;99.90
25963;DHT22;13760;52.588;13.406;2023-12-22T00:49:02;4.60;99.90
25963;DHT22;13760;52.588;13.406;2023-12-22T00:51:28;4.60;99.90
25963;DHT22;13760;52.588;13.406;2023-12-22T00:53:53;4.70;99.90
25963;DHT22;13760;52.588;13.406;2023-12-22T00:56:19;4.70;99.90
25963;DHT22;13760;52.588;13.406;2023-12-22T00:58:45;4.70;99.90
25963;DHT22;13760;52.588;13.406;2023-12-22T01:01:13;4.70;99.90
25963;DHT22;13760;52.588;13.406;2023-12-22T01:03:38;4.70;99.90
25963;DHT22;13760;52.588;13.406;2023-12-22T01:06:04;4.70;99.90
25963;DHT22;13760;52.588;13.406;2023-12-22T01:08:29;4.70;99.90
25963;DHT22;13760;52.588;13.406;2023-12-22T01:10:55;4.70;99.90
25963;DHT22;13760;52.588;13.406;2023-12-22T01:13:20;4.70;99.90
25963;DHT22;13760;52.588;13.406;2023-12-22T01:15:46;4.70;99.90
25963;DHT22;13760;52.588;13.406;2023-12-22T01:18:11;4.70;99.90
25963;DHT22;13760;52.588;13.406;2023-12-22T01:20:37;4.60;99.90
25963;DHT22;13760;52.588;13.406;2023-12-22T01:23:03;4.60;99.90
25963;DHT22;13760;52.588;13.406;2023-12-22T01:25:28;4.60;99.90
25963;DHT22;13760;52.588;13.406;2023-12-22T01:27:54;4.60;99.90
25963;DHT22;13760;52.588;13.406;2023-12-22T01:30:19;4.60;99.90
25963;DHT22;13760;52.588;13.406;2023-12-22T01:32:45;4.60;99.90
25963;DHT22;13760;52.588;13.406;2023-12-22T01:35:11;4.60;99.90
25963;DHT22;13760;52.588;13.406;2023-12-22T01:37:37;4.60;99.90
25963;DHT22;13760;52.588;13.406;2023-12-22T01:40:03;4.60;99.90
25963;DHT22;13760;52.588;13.406;2023-12-22T01:42:29;4.60;99.90
25963;DHT22;13760;52.588;13.406;2023-12-22T01:44:55;4.50;99.90
25963;DHT22;13760;52.588;13.406;2023-12-22T01:47:20;4.50;99.90
25963;DHT22;13760;52.588;13.406;2023-12-22T01:49:47;4.50;99.90
25963;DHT22;13760;52.588;13.406;2023-12-22T01:52:13;4.50;99.90
25963;DHT22;13760;52.588;13.406;2023-12-22T01:54:39;4.50;99.90
25963;DHT22;13760;52.588;13.406;2023-12-22T01:57:05;4.40;99.90
25963;DHT22;13760;52.588;13.406;2023-12-22T01:59:32;4.40;99.90
25963;DHT22;13760;52.588;13.406;2023-12-22T02:02:03;4.40;99.90
25963;DHT22;13760;52.588;13.406;2023-12-22T02:04:30;4.40;99.90
25963;DHT22;13760;52.588;13.406;2023-12-22T02:06:58;4.40;99.90
25963;DHT22;13760;52.588;13.406;2023-12-22T02:09:24;4.30;99.90
25963;DHT22;13760;52.588;13.406;2023-12-22T02:11:50;4.30;99.90
25963;DHT22;13760;52.588;13.406;2023-12-22T02:14:16;4.30;99.90
25963;DHT22;13760;52.588;13.406;2023-12-22T02:16:55;4.20;99.90
25963;DHT22;13760;52.588;13.406;2023-12-22T02:19:43;4.20;99.90
25963;DHT22;13760;52.588;13.406;2023-12-22T02:22:11;4.20;99.90
25963;DHT22;13760;52.588;13.406;2023-12-22T02:24:38;4.10;99.90
25963;DHT22;13760;52.588;13.406;2023-12-22T02:27:15;4.20;99.90
25963;DHT22;13760;52.588;13.406;2023-12-22T02:30:08;4.10;99.90
25963;DHT22;13760;52.588;13.406;2023-12-22T02:32:35;4.10;99.90
25963;DHT22;13760;52.588;13.406;2023-12-22T02:35:05;4.10;99.90
25963;DHT22;13760;52.588;13.406;2023-12-22T02:37:32;4.10;99.90
25963;DHT22;13760;52.588;13.406;2023-12-22T02:40:00;4.00;99.90
25963;DHT22;13760;52.588;13.406;2023-12-22T02:42:27;4.10;99.90
25963;DHT22;13760;52.588;13.406;2023-12-22T02:44:57;4.10;99.90
25963;DHT22;13760;52.588;13.406;2023-12-22T02:47:23;4.10;99.90
25963;DHT22;13760;52.588;13.406;2023-12-22T02:49:49;4.00;99.90
25963;DHT22;13760;52.588;13.406;2023-12-22T02:52:14;4.00;99.90
25963;DHT22;13760;52.588;13.406;2023-12-22T02:54:40;4.00;99.90
25963;DHT22;13760;52.588;13.406;2023-12-22T02:57:07;4.00;99.90
25963;DHT22;13760;52.588;13.406;2023-12-22T02:59:33;4.00;99.90
25963;DHT22;13760;52.588;13.406;2023-12-22T03:01:58;4.00;99.90
25963;DHT22;13760;52.588;13.406;2023-12-22T03:04:23;4.00;99.90
25963;DHT22;13760;52.588;13.406;2023-12-22T03:06:49;3.90;99.90
25963;DHT22;13760;52.588;13.406;2023-12-22T03:09:15;3.90;99.90
25963;DHT22;13760;52.588;13.406;2023-12-22T03:11:40;3.90;99.90
25963;DHT22;13760;52.588;13.406;2023-12-22T03:14:06;3.90;99.90
25963;DHT22;13760;52.588;13.406;2023-12-22T03:16:31;3.90;99.90
25963;DHT22;13760;52.588;13.406;2023-12-22T03:18:57;3.80;99.90
25963;DHT22;13760;52.588;13.406;2023-12-22T03:21:22;3.90;99.90
25963;DHT22;13760;52.588;13.406;2023-12-22T03:23:48;3.90;99.90
25963;DHT22;13760;52.588;13.406;2023-12-22T03:26:13;3.90;99.90
25963;DHT22;13760;52.588;13.406;2023-12-22T03:28:39;3.90;99.90
25963;DHT22;13760;52.588;13.406;2023-12-22T03:31:04;3.90;99.90
25963;DHT22;13760;52.588;13.406;2023-12-22T03:33:32;3.90;99.90
25963;DHT22;13760;52.588;13.406;2023-12-22T03:35:57;3.90;99.90
25963;DHT22;13760;52.588;13.406;2023-12-22T03:38:23;3.80;99.90
25963;DHT22;13760;52.588;13.406;2023-12-22T03:40:48;3.80;99.90
25963;DHT22;13760;52.588;13.406;2023-12-22T03:43:14;3.80;99.90
25963;DHT22;13760;52.588;13.406;2023-12-22T03:45:39;3.80;99.90
25963;DHT22;13760;52.588;13.406;2023-12-22T03:48:05;3.80;99.90
25963;DHT22;13760;52.588;13.406;2023-12-22T03:50:31;3.80;99.90
25963;DHT22;13760;52.588;13.406;2023-12-22T03:52:56;3.80;99.90
25963;DHT22;13760;52.588;13.406;2023-12-22T03:55:22;3.80;99.90
25963;DHT22;13760;52.588;13.406;2023-12-22T03:57:48;3.80;99.90
25963;DHT22;13760;52.588;13.406;2023-12-22T04:00:13;3.80;99.90
25963;DHT22;13760;52.588;13.406;2023-12-22T04:02:40;3.80;99.90
25963;DHT22;13760;52.588;13.406;2023-12-22T04:05:06;3.80;99.90
25963;DHT22;13760;52.588;13.406;2023-12-22T04:07:32;3.80;99.90
25963;DHT22;13760;52.588;13.406;2023-12-22T04:09:57;3.80;99.90
25963;DHT22;13760;52.588;13.406;2023-12-22T04:12:23;3.90;99.90
25963;DHT22;13760;52.588;13.406;2023-12-22T04:14:48;3.90;99.90
25963;DHT22;13760;52.588;13.406;2023-12-22T04:17:14;3.90;99.90
25963;DHT22;13760;52.588;13.406;2023-12-22T04:19:39;3.90;99.90
25963;DHT22;13760;52.588;13.406;2023-12-22T04:22:05;3.90;99.90
25963;DHT22;13760;52.588;13.406;2023-12-22T04:24:30;3.90;99.90
25963;DHT22;13760;52.588;13.406;2023-12-22T04:26:56;3.90;99.90
25963;DHT22;13760;52.588;13.406;2023-12-22T04:29:21;3.90;99.90
25963;DHT22;13760;52.588;13.406;2023-12-22T04:31:47;3.90;99.90
25963;DHT22;13760;52.588;13.406;2023-12-22T04:34:16;3.90;99.90
25963;DHT22;13760;52.588;13.406;2023-12-22T04:36:41;3.90;99.90
25963;DHT22;13760;52.588;13.406;2023-12-22T04:39:07;3.80;99.90
25963;DHT22;13760;52.588;13.406;2023-12-22T04:41:32;3.80;99.90
25963;DHT22;13760;52.588;13.406;2023-12-22T04:43:58;3.80;99.90
25963;DHT22;13760;52.588;13.406;2023-12-22T04:46:28;3.70;99.90
25963;DHT22;13760;52.588;13.406;2023-12-22T04:48:54;3.70;99.90
25963;DHT22;13760;52.588;13.406;2023-12-22T04:51:19;3.70;99.90
25963;DHT22;13760;52.588;13.406;2023-12-22T04:53:45;3.80;99.90
25963;DHT22;13760;52.588;13.406;2023-12-22T04:56:10;3.80;99.90
25963;DHT22;13760;52.588;13.406;2023-12-22T04:58:36;3.70;99.90
25963;DHT22;13760;52.588;13.406;2023-12-22T05:01:01;3.70;99.90
25963;DHT22;13760;52.588;13.406;2023-12-22T05:03:27;3.60;99.90
25963;DHT22;13760;52.588;13.406;2023-12-22T05:05:52;3.60;99.90
25963;DHT22;13760;52.588;13.406;2023-12-22T05:08:18;3.60;99.90
25963;DHT22;13760;52.588;13.406;2023-12-22T05:10:43;3.60;99.90
25963;DHT22;13760;52.588;13.406;2023-12-22T05:13:09;3.60;99.90
25963;DHT22;13760;52.588;13.406;2023-12-22T05:15:34;3.50;99.90
25963;DHT22;13760;52.588;13.406;2023-12-22T05:18:00;3.50;99.90
25963;DHT22;13760;52.588;13.406;2023-12-22T05:20:25;3.50;99.90
25963;DHT22;13760;52.588;13.406;2023-12-22T05:22:51;3.40;99.90
25963;DHT22;13760;52.588;13.406;2023-12-22T05:25:16;3.50;99.90
25963;DHT22;13760;52.588;13.406;2023-12-22T05:27:42;3.40;99.90
25963;DHT22;13760;52.588;13.406;2023-12-22T05:30:09;3.40;99.90
25963;DHT22;13760;52.588;13.406;2023-12-22T05:32:34;3.30;99.90
25963;DHT22;13760;52.588;13.406;2023-12-22T05:35:00;3.30;99.90
25963;DHT22;13760;52.588;13.406;2023-12-22T05:37:25;3.30;99.90
25963;DHT22;13760;52.588;13.406;2023-12-22T05:39:51;3.30;99.90
25963;DHT22;13760;52.588;13.406;2023-12-22T05:42:16;3.30;99.90
25963;DHT22;13760;52.588;13.406;2023-12-22T05:44:42;3.30;99.90
25963;DHT22;13760;52.588;13.406;2023-12-22T05:47:08;3.30;99.90
25963;DHT22;13760;52.588;13.406;2023-12-22T05:49:33;3.30;99.90
25963;DHT22;13760;52.588;13.406;2023-12-22T05:51:59;3.30;99.90
25963;DHT22;13760;52.588;13.406;2023-12-22T05:54:24;3.30;99.90
25963;DHT22;13760;52.588;13.406;2023-12-22T05:56:51;3.20;99.90
25963;DHT22;13760;52.588;13.406;2023-12-22T05:59:17;3.30;99.90
25963;DHT22;13760;52.588;13.406;2023-12-22T06:01:43;3.30;99.90
25963;DHT22;13760;52.588;13.406;2023-12-22T06:04:08;3.20;99.90
25963;DHT22;13760;52.588;13.406;2023-12-22T06:06:35;3.30;99.90
25963;DHT22;13760;52.588;13.406;2023-12-22T06:09:01;3.30;99.90
25963;DHT22;13760;52.588;13.406;2023-12-22T06:11:27;3.30;99.90
25963;DHT22;13760;52.588;13.406;2023-12-22T06:13:52;3.40;99.90
25963;DHT22;13760;52.588;13.406;2023-12-22T06:16:18;3.40;99.90
25963;DHT22;13760;52.588;13.406;2023-12-22T06:18:44;3.40;99.90
25963;DHT22;13760;52.588;13.406;2023-12-22T06:21:10;3.40;99.90
25963;DHT22;13760;52.588;13.406;2023-12-22T06:23:36;3.40;99.90
25963;DHT22;13760;52.588;13.406;2023-12-22T06:26:07;3.40;99.90
25963;DHT22;13760;52.588;13.406;2023-12-22T06:28:32;3.30;99.90
25963;DHT22;13760;52.588;13.406;2023-12-22T06:30:58;3.30;99.90
25963;DHT22;13760;52.588;13.406;2023-12-22T06:33:23;3.30;99.90
25963;DHT22;13760;52.588;13.406;2023-12-22T06:35:49;3.30;99.90
25963;DHT22;13760;52.588;13.406;2023-12-22T06:38:19;3.40;99.90
25963;DHT22;13760;52.588;13.406;2023-12-22T06:40:44;3.40;99.90
25963;DHT22;13760;52.588;13.406;2023-12-22T06:43:11;3.40;99.90
25963;DHT22;13760;52.588;13.406;2023-12-22T06:45:37;3.40;99.90
25963;DHT22;13760;52.588;13.406;2023-12-22T06:48:03;3.40;99.90
25963;DHT22;13760;52.588;13.406;2023-12-22T06:50:28;3.40;99.90
25963;DHT22;13760;52.588;13.406;2023-12-22T06:52:54;3.40;99.90
25963;DHT22;13760;52.588;13.406;2023-12-22T06:55:19;3.40;99.90
25963;DHT22;13760;52.588;13.406;2023-12-22T06:57:45;3.50;99.90
25963;DHT22;13760;52.588;13.406;2023-12-22T07:00:11;3.30;99.90
25963;DHT22;13760;52.588;13.406;2023-12-22T07:02:36;3.30;99.90
25963;DHT22;13760;52.588;13.406;2023-12-22T07:07:46;3.10;99.90
25963;DHT22;13760;52.588;13.406;2023-12-22T07:10:12;3.10;99.90
25963;DHT22;13760;52.588;13.406;2023-12-22T07:12:38;2.90;99.90
25963;DHT22;13760;52.588;13.406;2023-12-22T07:15:05;2.90;99.90
25963;DHT22;13760;52.588;13.406;2023-12-22T07:17:34;2.80;99.90
25963;DHT22;13760;52.588;13.406;2023-12-22T07:20:04;2.70;99.90
25963;DHT22;13760;52.588;13.406;2023-12-22T07:22:31;2.70;99.90
25963;DHT22;13760;52.588;13.406;2023-12-22T07:25:00;2.70;99.90
25963;DHT22;13760;52.588;13.406;2023-12-22T07:27:25;2.70;99.90
25963;DHT22;13760;52.588;13.406;2023-12-22T07:29:51;2.70;99.90
25963;DHT22;13760;52.588;13.406;2023-12-22T07:32:16;2.70;99.90
25963;DHT22;13760;52.588;13.406;2023-12-22T07:34:42;2.80;99.90
25963;DHT22;13760;52.588;13.406;2023-12-22T07:37:07;2.80;99.90
25963;DHT22;13760;52.588;13.406;2023-12-22T07:39:33;2.90;99.90
25963;DHT22;13760;52.588;13.406;2023-12-22T07:41:59;2.90;99.90
25963;DHT22;13760;52.588;13.406;2023-12-22T07:44:24;3.00;99.90
25963;DHT22;13760;52.588;13.406;2023-12-22T07:46:57;3.00;99.90
25963;DHT22;13760;52.588;13.406;2023-12-22T07:49:24;3.00;99.90
25963;DHT22;13760;52.588;13.406;2023-12-22T07:51:49;3.10;99.90
25963;DHT22;13760;52.588;13.406;2023-12-22T07:54:17;3.10;99.90
25963;DHT22;13760;52.588;13.406;2023-12-22T07:56:42;3.20;99.90
25963;DHT22;13760;52.588;13.406;2023-12-22T07:59:08;3.20;99.90
25963;DHT22;13760;52.588;13.406;2023-12-22T08:01:33;3.30;99.90
25963;DHT22;13760;52.588;13.406;2023-12-22T08:03:59;3.30;99.90
25963;DHT22;13760;52.588;13.406;2023-12-22T08:06:24;3.30;99.90
25963;DHT22;13760;52.588;13.406;2023-12-22T08:08:50;3.30;99.90
25963;DHT22;13760;52.588;13.406;2023-12-22T08:11:15;3.30;99.90
25963;DHT22;13760;52.588;13.406;2023-12-22T08:13:41;3.30;99.90
25963;DHT22;13760;52.588;13.406;2023-12-22T08:16:06;3.30;99.90
25963;DHT22;13760;52.588;13.406;2023-12-22T08:18:32;3.40;99.90
25963;DHT22;13760;52.588;13.406;2023-12-22T08:20:58;3.30;99.90
25963;DHT22;13760;52.588;13.406;2023-12-22T08:23:23;3.20;99.90
25963;DHT22;13760;52.588;13.406;2023-12-22T08:25:49;3.20;99.90
25963;DHT22;13760;52.588;13.406;2023-12-22T08:28:14;3.20;99.90
25963;DHT22;13760;52.588;13.406;2023-12-22T08:30:40;3.20;99.90
25963;DHT22;13760;52.588;13.406;2023-12-22T08:33:06;3.20;99.90
25963;DHT22;13760;52.588;13.406;2023-12-22T08:35:31;3.20;99.90
25963;DHT22;13760;52.588;13.406;2023-12-22T08:37:57;3.30;99.90
25963;DHT22;13760;52.588;13.406;2023-12-22T08:40:22;3.30;99.90
25963;DHT22;13760;52.588;13.406;2023-12-22T08:42:51;3.20;99.90
25963;DHT22;13760;52.588;13.406;2023-12-22T08:45:38;3.20;99.90
25963;DHT22;13760;52.588;13.406;2023-12-22T08:48:04;3.20;99.90
25963;DHT22;13760;52.588;13.406;2023-12-22T08:50:33;3.20;99.90
25963;DHT22;13760;52.588;13.406;2023-12-22T08:52:58;3.20;99.90
25963;DHT22;13760;52.588;13.406;2023-12-22T08:55:24;3.20;99.90
25963;DHT22;13760;52.588;13.406;2023-12-22T08:57:49;3.20;99.90
25963;DHT22;13760;52.588;13.406;2023-12-22T09:00:18;3.20;99.90
25963;DHT22;13760;52.588;13.406;2023-12-22T09:02:43;3.20;99.90
25963;DHT22;13760;52.588;13.406;2023-12-22T09:05:09;3.20;99.90
25963;DHT22;13760;52.588;13.406;2023-12-22T09:07:35;3.30;99.90
25963;DHT22;13760;52.588;13.406;2023-12-22T09:10:00;3.30;99.90
25963;DHT22;13760;52.588;13.406;2023-12-22T09:12:26;3.30;99.90
25963;DHT22;13760;52.588;13.406;2023-12-22T09:14:51;3.30;99.90
25963;DHT22;13760;52.588;13.406;2023-12-22T09:17:17;3.40;99.90
25963;DHT22;13760;52.588;13.406;2023-12-22T09:19:45;3.40;99.90
25963;DHT22;13760;52.588;13.406;2023-12-22T09:22:13;3.40;99.90
25963;DHT22;13760;52.588;13.406;2023-12-22T09:24:38;3.40;99.90
25963;DHT22;13760;52.588;13.406;2023-12-22T09:27:04;3.50;99.90
25963;DHT22;13760;52.588;13.406;2023-12-22T09:29:30;3.50;99.90
25963;DHT22;13760;52.588;13.406;2023-12-22T09:31:57;3.50;99.90
25963;DHT22;13760;52.588;13.406;2023-12-22T09:34:26;3.50;99.90
25963;DHT22;13760;52.588;13.406;2023-12-22T09:36:52;3.60;99.90
25963;DHT22;13760;52.588;13.406;2023-12-22T09:39:17;3.60;99.90
25963;DHT22;13760;52.588;13.406;2023-12-22T09:41:48;3.60;99.90
25963;DHT22;13760;52.588;13.406;2023-12-22T09:44:19;3.60;99.90
25963;DHT22;13760;52.588;13.406;2023-12-22T09:46:47;3.60;99.90
25963;DHT22;13760;52.588;13.406;2023-12-22T09:49:14;3.70;99.90
25963;DHT22;13760;52.588;13.406;2023-12-22T09:51:41;3.80;99.90
25963;DHT22;13760;52.588;13.406;2023-12-22T09:54:08;3.80;99.90
25963;DHT22;13760;52.588;13.406;2023-12-22T09:56:38;3.80;99.90
25963;DHT22;13760;52.588;13.406;2023-12-22T09:59:10;3.80;99.90
25963;DHT22;13760;52.588;13.406;2023-12-22T10:01:38;3.80;99.90
25963;DHT22;13760;52.588;13.406;2023-12-22T10:04:05;3.90;99.90
25963;DHT22;13760;52.588;13.406;2023-12-22T10:06:30;3.90;99.90
25963;DHT22;13760;52.588;13.406;2023-12-22T10:08:56;3.90;99.90
25963;DHT22;13760;52.588;13.406;2023-12-22T10:11:22;3.90;99.90
25963;DHT22;13760;52.588;13.406;2023-12-22T10:13:50;4.00;99.90
25963;DHT22;13760;52.588;13.406;2023-12-22T10:16:18;4.00;99.90
25963;DHT22;13760;52.588;13.406;2023-12-22T10:18:44;4.10;99.90
25963;DHT22;13760;52.588;13.406;2023-12-22T10:21:09;4.10;99.90
25963;DHT22;13760;52.588;13.406;2023-12-22T10:23:35;4.10;99.90
25963;DHT22;13760;52.588;13.406;2023-12-22T10:26:00;4.10;99.90
25963;DHT22;13760;52.588;13.406;2023-12-22T10:28:29;4.20;99.90
25963;DHT22;13760;52.588;13.406;2023-12-22T10:30:56;4.20;99.90
25963;DHT22;13760;52.588;13.406;2023-12-22T10:33:24;4.20;99.90
25963;DHT22;13760;52.588;13.406;2023-12-22T10:35:50;4.20;99.90
25963;DHT22;13760;52.588;13.406;2023-12-22T10:38:19;4.20;99.90
25963;DHT22;13760;52.588;13.406;2023-12-22T10:40:46;4.30;99.90
25963;DHT22;13760;52.588;13.406;2023-12-22T10:43:12;4.30;99.90
25963;DHT22;13760;52.588;13.406;2023-12-22T10:45:40;4.30;99.90
25963;DHT22;13760;52.588;13.406;2023-12-22T10:48:08;4.30;99.90
25963;DHT22;13760;52.588;13.406;2023-12-22T10:50:35;4.40;99.90
25963;DHT22;13760;52.588;13.406;2023-12-22T10:53:01;4.40;99.90
25963;DHT22;13760;52.588;13.406;2023-12-22T10:55:27;4.40;99.90
25963;DHT22;13760;52.588;13.406;2023-12-22T10:57:55;4.40;99.90
25963;DHT22;13760;52.588;13.406;2023-12-22T11:00:21;4.50;99.90
25963;DHT22;13760;52.588;13.406;2023-12-22T11:02:48;4.50;99.90
25963;DHT22;13760;52.588;13.406;2023-12-22T11:05:15;4.50;99.90
25963;DHT22;13760;52.588;13.406;2023-12-22T11:07:48;4.50;99.90
25963;DHT22;13760;52.588;13.406;2023-12-22T11:10:19;4.50;99.90
25963;DHT22;13760;52.588;13.406;2023-12-22T11:12:45;4.50;99.90
25963;DHT22;13760;52.588;13.406;2023-12-22T11:15:12;4.50;99.90
25963;DHT22;13760;52.588;13.406;2023-12-22T11:17:39;4.50;99.90
25963;DHT22;13760;52.588;13.406;2023-12-22T11:20:09;4.50;99.90
25963;DHT22;13760;52.588;13.406;2023-12-22T11:22:36;4.50;99.90
25963;DHT22;13760;52.588;13.406;2023-12-22T11:25:02;4.50;99.90
25963;DHT22;13760;52.588;13.406;2023-12-22T11:27:29;4.50;99.90
25963;DHT22;13760;52.588;13.406;2023-12-22T11:29:55;4.50;99.90
25963;DHT22;13760;52.588;13.406;2023-12-22T11:32:20;4.50;99.90
25963;DHT22;13760;52.588;13.406;2023-12-22T11:34:47;4.50;99.90
25963;DHT22;13760;52.588;13.406;2023-12-22T11:37:14;4.50;99.90
25963;DHT22;13760;52.588;13.406;2023-12-22T11:39:43;4.60;99.90
25963;DHT22;13760;52.588;13.406;2023-12-22T11:42:23;4.60;99.90
25963;DHT22;13760;52.588;13.406;2023-12-22T11:44:50;4.70;99.90
25963;DHT22;13760;52.588;13.406;2023-12-22T11:47:15;4.70;99.90
25963;DHT22;13760;52.588;13.406;2023-12-22T11:49:41;4.80;99.90
25963;DHT22;13760;52.588;13.406;2023-12-22T11:52:14;4.70;99.90
25963;DHT22;13760;52.588;13.406;2023-12-22T11:54:50;4.80;99.90
25963;DHT22;13760;52.588;13.406;2023-12-22T11:59:58;5.00;99.90
25963;DHT22;13760;52.588;13.406;2023-12-22T12:02:24;5.00;99.90
25963;DHT22;13760;52.588;13.406;2023-12-22T12:04:51;5.10;99.90
25963;DHT22;13760;52.588;13.406;2023-12-22T12:07:43;5.10;99.90
25963;DHT22;13760;52.588;13.406;2023-12-22T12:10:12;5.10;99.90
25963;DHT22;13760;52.588;13.406;2023-12-22T12:12:38;5.10;99.90
25963;DHT22;13760;52.588;13.406;2023-12-22T12:15:17;5.00;99.90
25963;DHT22;13760;52.588;13.406;2023-12-22T12:17:43;5.00;99.90
25963;DHT22;13760;52.588;13.406;2023-12-22T12:20:10;5.00;99.90
25963;DHT22;13760;52.588;13.406;2023-12-22T12:22:37;5.00;99.90
25963;DHT22;13760;52.588;13.406;2023-12-22T12:25:07;4.90;99.90
25963;DHT22;13760;52.588;13.406;2023-12-22T12:27:36;4.90;99.90
25963;DHT22;13760;52.588;13.406;2023-12-22T12:30:14;4.80;99.90
25963;DHT22;13760;52.588;13.406;2023-12-22T12:32:43;4.90;99.90
25963;DHT22;13760;52.588;13.406;2023-12-22T12:35:10;4.80;99.90
25963;DHT22;13760;52.588;13.406;2023-12-22T12:37:37;4.80;99.90
25963;DHT22;13760;52.588;13.406;2023-12-22T12:40:07;4.80;99.90
25963;DHT22;13760;52.588;13.406;2023-12-22T12:42:35;4.70;99.90
25963;DHT22;13760;52.588;13.406;2023-12-22T12:45:04;4.70;99.90
25963;DHT22;13760;52.588;13.406;2023-12-22T12:47:29;4.70;99.90
25963;DHT22;13760;52.588;13.406;2023-12-22T12:50:01;4.80;99.90
25963;DHT22;13760;52.588;13.406;2023-12-22T12:52:28;4.80;99.90
25963;DHT22;13760;52.588;13.406;2023-12-22T12:54:54;4.80;99.90
25963;DHT22;13760;52.588;13.406;2023-12-22T12:57:20;4.80;99.90
25963;DHT22;13760;52.588;13.406;2023-12-22T12:59:50;4.80;99.90
25963;DHT22;13760;52.588;13.406;2023-12-22T13:02:16;4.70;99.90
25963;DHT22;13760;52.588;13.406;2023-12-22T13:04:42;4.70;99.90
25963;DHT22;13760;52.588;13.406;2023-12-22T13:07:08;4.60;99.90
25963;DHT22;13760;52.588;13.406;2023-12-22T13:09:35;4.60;99.90
25963;DHT22;13760;52.588;13.406;2023-12-22T13:12:01;4.60;99.90
25963;DHT22;13760;52.588;13.406;2023-12-22T13:14:28;4.60;99.90
25963;DHT22;13760;52.588;13.406;2023-12-22T13:16:55;4.60;99.90
25963;DHT22;13760;52.588;13.406;2023-12-22T13:19:22;4.60;99.90
25963;DHT22;13760;52.588;13.406;2023-12-22T13:21:50;4.60;99.90
25963;DHT22;13760;52.588;13.406;2023-12-22T13:24:18;4.60;99.90
25963;DHT22;13760;52.588;13.406;2023-12-22T13:26:57;4.60;99.90
25963;DHT22;13760;52.588;13.406;2023-12-22T13:29:23;4.60;99.90
25963;DHT22;13760;52.588;13.406;2023-12-22T13:31:49;4.60;99.90
25963;DHT22;13760;52.588;13.406;2023-12-22T13:34:14;4.50;99.90
25963;DHT22;13760;52.588;13.406;2023-12-22T13:36:41;4.50;99.90
25963;DHT22;13760;52.588;13.406;2023-12-22T13:39:12;4.60;99.90
25963;DHT22;13760;52.588;13.406;2023-12-22T13:41:42;4.60;99.90
25963;DHT22;13760;52.588;13.406;2023-12-22T13:44:11;4.50;99.90
25963;DHT22;13760;52.588;13.406;2023-12-22T13:46:39;4.50;99.90
25963;DHT22;13760;52.588;13.406;2023-12-22T13:49:08;4.50;99.90
25963;DHT22;13760;52.588;13.406;2023-12-22T13:54:04;4.60;99.90
25963;DHT22;13760;52.588;13.406;2023-12-22T13:56:37;4.60;99.90
25963;DHT22;13760;52.588;13.406;2023-12-22T13:59:05;4.70;99.90
25963;DHT22;13760;52.588;13.406;2023-12-22T14:01:30;4.60;99.90
25963;DHT22;13760;52.588;13.406;2023-12-22T14:03:56;4.60;99.90
25963;DHT22;13760;52.588;13.406;2023-12-22T14:06:28;4.60;99.90
25963;DHT22;13760;52.588;13.406;2023-12-22T14:08:55;4.70;99.90
25963;DHT22;13760;52.588;13.406;2023-12-22T14:11:21;4.70;99.90
25963;DHT22;13760;52.588;13.406;2023-12-22T14:13:47;4.60;99.90
25963;DHT22;13760;52.588;13.406;2023-12-22T14:16:12;4.60;99.90
25963;DHT22;13760;52.588;13.406;2023-12-22T14:18:39;4.60;99.90
25963;DHT22;13760;52.588;13.406;2023-12-22T14:21:04;4.60;99.90
25963;DHT22;13760;52.588;13.406;2023-12-22T14:23:30;4.50;99.90
25963;DHT22;13760;52.588;13.406;2023-12-22T14:25:56;4.50;99.90
25963;DHT22;13760;52.588;13.406;2023-12-22T14:28:23;4.40;99.90
25963;DHT22;13760;52.588;13.406;2023-12-22T14:30:48;4.40;99.90
25963;DHT22;13760;52.588;13.406;2023-12-22T14:33:14;4.30;99.90
25963;DHT22;13760;52.588;13.406;2023-12-22T14:35:40;4.30;99.90
25963;DHT22;13760;52.588;13.406;2023-12-22T14:38:05;4.20;99.90
25963;DHT22;13760;52.588;13.406;2023-12-22T14:40:30;4.20;99.90
25963;DHT22;13760;52.588;13.406;2023-12-22T14:42:56;4.10;99.90
25963;DHT22;13760;52.588;13.406;2023-12-22T14:45:21;4.10;99.90
25963;DHT22;13760;52.588;13.406;2023-12-22T14:47:48;4.10;99.90
25963;DHT22;13760;52.588;13.406;2023-12-22T14:50:14;4.00;99.90
25963;DHT22;13760;52.588;13.406;2023-12-22T14:52:39;4.00;99.90
25963;DHT22;13760;52.588;13.406;2023-12-22T14:55:05;4.00;99.90
25963;DHT22;13760;52.588;13.406;2023-12-22T14:57:31;4.00;99.90
25963;DHT22;13760;52.588;13.406;2023-12-22T14:59:58;4.00;99.90
25963;DHT22;13760;52.588;13.406;2023-12-22T15:02:24;3.90;99.90
25963;DHT22;13760;52.588;13.406;2023-12-22T15:04:50;3.90;99.90
25963;DHT22;13760;52.588;13.406;2023-12-22T15:07:16;3.90;99.90
25963;DHT22;13760;52.588;13.406;2023-12-22T15:09:43;3.90;99.90
25963;DHT22;13760;52.588;13.406;2023-12-22T15:12:10;3.80;99.90
25963;DHT22;13760;52.588;13.406;2023-12-22T15:14:36;3.80;99.90
25963;DHT22;13760;52.588;13.406;2023-12-22T15:17:02;3.80;99.90
25963;DHT22;13760;52.588;13.406;2023-12-22T15:19:27;3.80;99.90
25963;DHT22;13760;52.588;13.406;2023-12-22T15:21:53;3.80;99.90
25963;DHT22;13760;52.588;13.406;2023-12-22T15:24:19;3.70;99.90
25963;DHT22;13760;52.588;13.406;2023-12-22T15:26:44;3.70;99.90
25963;DHT22;13760;52.588;13.406;2023-12-22T15:29:10;3.70;99.90
25963;DHT22;13760;52.588;13.406;2023-12-22T15:31:36;3.70;99.90
25963;DHT22;13760;52.588;13.406;2023-12-22T15:34:02;3.70;99.90